createdAt,value
2018-03-31T00:00:27.506Z,20.77
2018-03-31T00:02:54.491Z,21.40
2018-03-31T00:05:21.458Z,20.00
2018-03-31T00:07:48.437Z,20.97
2018-03-31T00:10:15.401Z,20.30
2018-03-31T00:12:42.393Z,18.27
2018-03-31T00:15:09.367Z,18.40
2018-03-31T00:17:36.346Z,19.37
2018-03-31T00:20:03.313Z,18.50
2018-03-31T00:22:31.078Z,18.67
2018-03-31T00:24:58.040Z,16.97
2018-03-31T00:27:25.013Z,17.70
2018-03-31T00:29:51.989Z,18.13
2018-03-31T00:32:18.967Z,17.23
2018-03-31T00:34:45.960Z,16.23
2018-03-31T00:37:13.696Z,17.53
2018-03-31T00:39:40.672Z,16.63
2018-03-31T00:42:08.419Z,16.60
2018-03-31T00:44:35.392Z,16.53
2018-03-31T00:47:03.127Z,16.80
2018-03-31T00:49:30.115Z,16.53
2018-03-31T00:51:57.846Z,15.37
2018-03-31T00:54:24.819Z,16.97
2018-03-31T00:56:51.794Z,17.17
2018-03-31T00:59:19.537Z,14.97
2018-03-31T01:01:46.508Z,16.23
2018-03-31T01:04:14.256Z,14.40
2018-03-31T01:06:41.989Z,15.10
2018-03-31T01:09:08.965Z,15.30
2018-03-31T01:11:35.993Z,15.70
2018-03-31T01:14:02.968Z,13.80
2018-03-31T01:16:29.944Z,15.30
2018-03-31T01:18:57.684Z,15.47
2018-03-31T01:21:24.660Z,15.33
2018-03-31T01:23:52.406Z,14.90
2018-03-31T01:26:19.376Z,16.30
2018-03-31T01:28:47.113Z,15.10
2018-03-31T01:31:14.084Z,15.33
2018-03-31T01:33:41.185Z,14.53
2018-03-31T01:36:08.165Z,14.10
2018-03-31T01:38:35.145Z,14.50
2018-03-31T01:41:02.106Z,14.30
2018-03-31T01:43:29.856Z,14.33
2018-03-31T01:45:58.344Z,14.23
2018-03-31T01:48:25.344Z,14.93
2018-03-31T01:50:52.323Z,15.00
2018-03-31T01:53:19.289Z,14.10
2018-03-31T01:55:46.267Z,14.40
2018-03-31T01:58:13.242Z,14.47
2018-03-31T02:00:40.205Z,12.53
2018-03-31T02:03:07.201Z,13.73
2018-03-31T02:05:34.168Z,14.23
2018-03-31T02:08:01.921Z,13.07
2018-03-31T02:10:28.904Z,13.00
2018-03-31T02:12:55.876Z,13.50
2018-03-31T02:15:22.865Z,13.57
2018-03-31T02:17:49.834Z,12.90
2018-03-31T02:20:17.573Z,12.83
2018-03-31T02:22:44.549Z,12.10
2018-03-31T02:25:11.535Z,12.67
2018-03-31T02:27:38.565Z,12.43
2018-03-31T02:30:06.324Z,12.77
2018-03-31T02:32:33.290Z,13.03
2018-03-31T02:35:00.274Z,12.50
2018-03-31T02:37:27.245Z,12.77
2018-03-31T02:39:54.217Z,12.30
2018-03-31T02:42:21.195Z,12.57
2018-03-31T02:44:48.170Z,12.47
2018-03-31T02:47:15.162Z,12.60
2018-03-31T02:49:42.141Z,12.17
2018-03-31T02:52:09.114Z,12.20
2018-03-31T02:54:36.094Z,12.60
2018-03-31T02:57:03.053Z,11.70
2018-03-31T02:59:30.092Z,12.50
2018-03-31T03:01:57.077Z,12.00
2018-03-31T03:04:24.047Z,12.10
2018-03-31T03:06:51.784Z,12.43
2018-03-31T03:09:18.773Z,12.30
2018-03-31T03:11:45.752Z,11.60
2018-03-31T03:14:12.745Z,12.20
2018-03-31T03:16:40.482Z,11.80
2018-03-31T03:19:07.469Z,11.90
2018-03-31T03:21:34.439Z,12.33
2018-03-31T03:24:02.184Z,12.90
2018-03-31T03:26:29.166Z,11.90
2018-03-31T03:28:56.130Z,12.00
2018-03-31T03:31:23.115Z,12.83
2018-03-31T03:33:50.093Z,12.13
2018-03-31T03:36:17.835Z,12.67
2018-03-31T03:38:44.796Z,11.50
2018-03-31T03:41:11.794Z,12.40
2018-03-31T03:43:38.772Z,11.37
2018-03-31T03:46:05.754Z,11.97
2018-03-31T03:48:32.721Z,12.67
2018-03-31T03:50:59.696Z,11.47
2018-03-31T03:53:26.676Z,11.67
2018-03-31T03:55:53.714Z,11.87
2018-03-31T03:58:20.697Z,11.30
2018-03-31T04:00:47.657Z,12.33
2018-03-31T04:03:16.157Z,11.37
2018-03-31T04:05:43.115Z,11.77
2018-03-31T04:08:10.859Z,11.73
2018-03-31T04:10:38.011Z,11.37
2018-03-31T04:13:04.984Z,11.27
2018-03-31T04:15:31.959Z,11.00
2018-03-31T04:17:58.940Z,11.27
2018-03-31T04:20:25.896Z,11.67
2018-03-31T04:22:52.872Z,11.60
2018-03-31T04:25:19.836Z,11.67
2018-03-31T04:27:46.812Z,11.97
2018-03-31T04:30:13.807Z,11.43
2018-03-31T04:32:40.776Z,12.00
2018-03-31T04:35:07.738Z,12.20
2018-03-31T04:37:34.715Z,12.37
2018-03-31T04:40:01.678Z,10.63
2018-03-31T04:42:28.661Z,11.43
2018-03-31T04:44:55.636Z,11.87
2018-03-31T04:47:22.613Z,11.83
2018-03-31T04:49:49.582Z,11.00
2018-03-31T04:52:16.578Z,11.30
2018-03-31T04:54:45.048Z,11.50
2018-03-31T04:57:12.018Z,12.10
2018-03-31T04:59:39.005Z,11.33
2018-03-31T05:02:05.993Z,11.13
2018-03-31T05:04:32.956Z,10.90
2018-03-31T05:06:59.939Z,11.33
2018-03-31T05:09:27.683Z,10.70
2018-03-31T05:11:54.683Z,10.63
2018-03-31T05:14:21.636Z,11.00
2018-03-31T05:16:48.605Z,11.20
2018-03-31T05:19:15.600Z,10.67
2018-03-31T05:21:42.570Z,10.90
2018-03-31T05:24:10.320Z,11.47
2018-03-31T05:26:37.301Z,10.60
2018-03-31T05:29:04.294Z,11.73
2018-03-31T05:31:31.270Z,11.03
2018-03-31T05:33:58.304Z,10.53
2018-03-31T05:36:25.277Z,10.43
2018-03-31T05:38:52.262Z,10.30
2018-03-31T05:41:19.247Z,10.40
2018-03-31T05:43:46.232Z,11.40
2018-03-31T05:46:13.220Z,10.53
2018-03-31T05:48:40.184Z,10.40
2018-03-31T05:51:07.190Z,10.40
2018-03-31T05:53:34.503Z,11.03
2018-03-31T05:56:01.560Z,9.80
2018-03-31T05:58:28.538Z,9.67
2018-03-31T06:03:32.999Z,9.50
2018-03-31T06:06:00.712Z,9.50
2018-03-31T06:08:27.673Z,9.53
2018-03-31T06:10:54.651Z,9.33
2018-03-31T06:13:21.649Z,8.73
2018-03-31T06:15:48.620Z,9.27
2018-03-31T06:18:15.605Z,8.87
2018-03-31T06:20:42.580Z,8.60
2018-03-31T06:23:20.763Z,8.50
2018-03-31T06:25:47.741Z,8.83
2018-03-31T06:28:15.465Z,8.67
2018-03-31T06:30:42.437Z,9.03
2018-03-31T06:33:09.457Z,7.97
2018-03-31T06:35:36.476Z,8.70
2018-03-31T06:38:03.508Z,8.90
2018-03-31T06:40:31.233Z,7.43
2018-03-31T06:42:58.238Z,7.03
2018-03-31T06:45:26.052Z,6.97
2018-03-31T06:47:53.033Z,6.73
2018-03-31T06:50:20.004Z,7.00
2018-03-31T06:52:47.769Z,6.73
2018-03-31T06:55:14.741Z,6.57
2018-03-31T06:57:41.712Z,7.47
2018-03-31T07:00:08.680Z,6.40
2018-03-31T07:02:35.682Z,6.53
2018-03-31T07:05:03.422Z,6.17
2018-03-31T07:07:30.404Z,6.43
2018-03-31T07:09:58.129Z,5.73
2018-03-31T07:12:25.097Z,6.10
2018-03-31T07:14:52.082Z,6.30
2018-03-31T07:17:19.123Z,6.63
2018-03-31T07:19:46.893Z,6.13
2018-03-31T07:22:13.909Z,6.70
2018-03-31T07:24:40.821Z,6.73
2018-03-31T07:27:07.844Z,6.70
2018-03-31T07:29:35.741Z,6.83
2018-03-31T07:32:02.721Z,7.43
2018-03-31T07:34:29.713Z,8.70
2018-03-31T07:36:57.448Z,10.07
2018-03-31T07:39:24.432Z,8.63
2018-03-31T07:41:52.181Z,9.63
2018-03-31T07:44:19.190Z,9.70
2018-03-31T07:46:46.277Z,9.57
2018-03-31T07:49:13.310Z,10.63
2018-03-31T07:51:40.450Z,11.27
2018-03-31T07:54:07.510Z,11.40
2018-03-31T07:56:34.505Z,11.23
2018-03-31T07:59:01.476Z,10.30
2018-03-31T08:01:28.456Z,13.17
2018-03-31T08:03:55.425Z,12.80
2018-03-31T08:06:22.436Z,13.03
2018-03-31T08:08:49.428Z,14.07
2018-03-31T08:11:16.576Z,13.47
2018-03-31T08:13:43.580Z,13.27
2018-03-31T08:16:10.565Z,13.27
2018-03-31T08:18:37.535Z,14.37
2018-03-31T08:21:04.513Z,14.07
2018-03-31T08:23:31.476Z,13.37
2018-03-31T08:25:59.228Z,13.20
2018-03-31T08:28:26.199Z,13.00
2018-03-31T08:30:53.933Z,12.23
2018-03-31T08:33:20.921Z,13.93
2018-03-31T08:35:48.660Z,13.50
2018-03-31T08:38:15.625Z,12.93
2018-03-31T08:40:43.363Z,11.63
2018-03-31T08:43:10.360Z,11.93
2018-03-31T08:45:37.331Z,12.90
2018-03-31T08:48:04.309Z,10.87
2018-03-31T08:50:31.280Z,11.93
2018-03-31T08:52:59.039Z,11.40
2018-03-31T08:55:26.080Z,11.97
2018-03-31T08:57:53.048Z,12.60
2018-03-31T09:00:20.036Z,11.00
2018-03-31T09:02:47.018Z,11.03
2018-03-31T09:05:13.993Z,11.53
2018-03-31T09:07:40.980Z,10.93
2018-03-31T09:10:08.737Z,10.30
2018-03-31T09:12:36.473Z,10.20
2018-03-31T09:15:03.492Z,10.03
2018-03-31T09:17:30.430Z,10.20
2018-03-31T09:19:58.154Z,9.63
2018-03-31T09:22:25.129Z,10.20
2018-03-31T09:24:52.934Z,9.40
2018-03-31T09:27:19.893Z,9.50
2018-03-31T09:29:46.865Z,9.57
2018-03-31T09:32:13.836Z,8.53
2018-03-31T09:34:40.810Z,8.83
2018-03-31T09:37:07.772Z,9.23
2018-03-31T09:39:34.749Z,8.67
2018-03-31T09:42:01.721Z,8.63
2018-03-31T09:44:28.681Z,8.50
2018-03-31T09:46:55.664Z,8.53
2018-03-31T09:49:23.394Z,7.63
2018-03-31T09:51:50.353Z,8.07
2018-03-31T09:54:18.097Z,7.97
2018-03-31T09:56:45.081Z,8.57
2018-03-31T09:59:12.043Z,8.10
2018-03-31T10:01:39.024Z,8.00
2018-03-31T10:04:05.993Z,7.77
2018-03-31T10:06:32.967Z,8.20
2018-03-31T10:08:59.937Z,7.30
2018-03-31T10:11:26.909Z,7.77
2018-03-31T10:13:54.641Z,7.13
2018-03-31T10:16:21.613Z,6.47
2018-03-31T10:18:48.581Z,6.90
2018-03-31T10:21:16.330Z,7.67
2018-03-31T10:23:43.316Z,7.13
2018-03-31T10:26:10.294Z,6.70
2018-03-31T10:28:37.270Z,5.83
2018-03-31T10:31:04.230Z,6.23
2018-03-31T10:33:31.965Z,6.47
2018-03-31T10:36:05.792Z,6.23
2018-03-31T10:38:32.770Z,5.97
2018-03-31T10:41:00.501Z,6.40
2018-03-31T10:43:27.466Z,5.60
2018-03-31T10:45:54.436Z,5.73
2018-03-31T10:48:22.168Z,5.77
2018-03-31T10:50:49.141Z,6.20
2018-03-31T10:53:16.117Z,5.60
2018-03-31T10:55:43.848Z,5.17
2018-03-31T10:58:10.824Z,5.70
2018-03-31T11:00:38.569Z,5.40
2018-03-31T11:03:06.373Z,5.50
2018-03-31T11:05:33.298Z,5.40
2018-03-31T11:08:00.256Z,5.27
2018-03-31T11:10:28.005Z,5.07
2018-03-31T11:12:55.020Z,5.33
2018-03-31T11:15:21.954Z,5.00
2018-03-31T11:17:48.921Z,4.53
2018-03-31T11:20:15.890Z,4.67
2018-03-31T11:22:42.872Z,4.73
2018-03-31T11:25:09.837Z,4.60
2018-03-31T11:27:37.576Z,4.27
2018-03-31T11:30:04.541Z,4.63
2018-03-31T11:32:31.516Z,5.13
2018-03-31T11:34:58.497Z,4.13
2018-03-31T11:37:25.474Z,4.30
2018-03-31T11:39:52.447Z,4.50
2018-03-31T11:42:19.405Z,4.40
2018-03-31T11:44:46.390Z,3.90
2018-03-31T11:47:13.449Z,4.37
2018-03-31T11:49:40.417Z,3.77
2018-03-31T11:52:07.381Z,4.00
2018-03-31T11:54:34.348Z,3.73
2018-03-31T11:57:01.316Z,4.07
2018-03-31T11:59:29.068Z,3.20
2018-03-31T12:01:56.037Z,3.67
2018-03-31T12:04:23.782Z,3.20
2018-03-31T12:06:50.841Z,3.27
2018-03-31T12:09:19.316Z,3.80
2018-03-31T12:11:47.797Z,3.17
2018-03-31T12:14:14.760Z,3.20
2018-03-31T12:16:41.758Z,3.40
2018-03-31T12:19:08.741Z,3.23
2018-03-31T12:21:35.717Z,2.90
2018-03-31T12:24:02.685Z,3.30
2018-03-31T12:26:30.425Z,2.80
2018-03-31T12:28:57.389Z,2.93
2018-03-31T12:31:25.120Z,3.17
2018-03-31T12:33:52.110Z,2.90
2018-03-31T12:36:19.087Z,2.90
2018-03-31T12:38:46.045Z,2.97
2018-03-31T12:41:13.016Z,3.00
2018-03-31T12:43:39.984Z,2.93
2018-03-31T12:46:06.961Z,2.40
2018-03-31T12:48:33.932Z,2.37
2018-03-31T12:51:01.675Z,3.03
2018-03-31T12:53:28.646Z,2.50
2018-03-31T12:55:56.378Z,2.57
2018-03-31T12:58:23.353Z,2.63
2018-03-31T13:00:51.081Z,2.30
2018-03-31T13:03:18.057Z,2.40
2018-03-31T13:05:45.029Z,2.40
2018-03-31T13:08:12.773Z,2.53
2018-03-31T13:10:41.251Z,2.33
2018-03-31T13:13:08.233Z,2.83
2018-03-31T13:15:35.972Z,19.00
2018-03-31T13:18:02.941Z,28.40
2018-03-31T13:20:29.924Z,42.03
2018-03-31T13:22:56.889Z,42.40
2018-03-31T13:25:23.870Z,42.23
2018-03-31T13:27:50.845Z,39.20
2018-03-31T13:30:17.811Z,35.93
2018-03-31T13:32:44.799Z,34.33
2018-03-31T13:35:11.790Z,32.47
2018-03-31T13:37:40.275Z,28.60
2018-03-31T13:40:07.244Z,42.60
2018-03-31T13:42:34.987Z,44.50
2018-03-31T13:45:01.957Z,43.50
2018-03-31T13:47:29.705Z,45.57
2018-03-31T13:49:56.694Z,42.67
2018-03-31T13:52:23.651Z,41.13
2018-03-31T13:54:50.628Z,47.67
2018-03-31T13:57:17.618Z,43.30
2018-03-31T13:59:44.589Z,45.33
2018-03-31T14:02:12.348Z,42.73
2018-03-31T14:04:39.324Z,45.40
2018-03-31T14:07:06.297Z,47.23
2018-03-31T14:09:33.283Z,78.50
2018-03-31T14:12:00.273Z,66.37
2018-03-31T14:14:27.256Z,74.97
2018-03-31T14:16:54.227Z,70.37
2018-03-31T14:19:21.207Z,66.03
2018-03-31T14:21:48.181Z,61.27
2018-03-31T14:24:15.919Z,55.30
2018-03-31T14:26:42.890Z,48.50
2018-03-31T14:29:10.671Z,45.07
2018-03-31T14:31:38.399Z,45.17
2018-03-31T14:34:05.361Z,44.63
2018-03-31T14:36:32.351Z,39.20
2018-03-31T14:38:59.332Z,37.43
2018-03-31T14:41:26.296Z,39.40
2018-03-31T14:43:53.282Z,36.73
2018-03-31T14:46:21.028Z,34.43
2018-03-31T14:48:48.009Z,34.93
2018-03-31T14:51:15.754Z,31.90
2018-03-31T14:53:43.492Z,33.00
2018-03-31T14:56:10.469Z,30.80
2018-03-31T14:58:37.448Z,30.50
2018-03-31T15:01:04.518Z,30.63
2018-03-31T15:03:31.536Z,29.97
2018-03-31T15:05:59.399Z,28.73
2018-03-31T15:08:26.447Z,29.47
2018-03-31T15:10:53.458Z,27.90
2018-03-31T15:13:20.435Z,28.43
2018-03-31T15:15:47.423Z,26.13
2018-03-31T15:18:14.395Z,24.73
2018-03-31T15:20:41.369Z,23.23
2018-03-31T15:23:08.353Z,25.23
2018-03-31T15:25:36.089Z,21.90
2018-03-31T15:28:03.072Z,20.40
2018-03-31T15:30:30.813Z,20.77
2018-03-31T15:32:57.852Z,19.63
2018-03-31T15:35:24.818Z,18.83
2018-03-31T15:37:51.869Z,16.40
2018-03-31T15:40:18.843Z,15.67
2018-03-31T15:42:45.814Z,15.47
2018-03-31T15:45:13.553Z,15.30
2018-03-31T15:47:40.524Z,15.17
2018-03-31T15:50:08.322Z,14.90
2018-03-31T15:52:35.289Z,13.50
2018-03-31T15:55:02.275Z,12.93
2018-03-31T15:57:29.288Z,13.07
2018-03-31T15:59:56.217Z,13.03
2018-03-31T16:02:23.201Z,12.77
2018-03-31T16:04:50.222Z,12.23
2018-03-31T16:07:17.212Z,12.37
2018-03-31T16:09:44.169Z,11.47
2018-03-31T16:12:11.148Z,12.30
2018-03-31T16:14:38.115Z,11.93
2018-03-31T16:17:05.861Z,12.07
2018-03-31T16:19:33.611Z,11.60
2018-03-31T16:22:00.783Z,11.87
2018-03-31T16:24:29.253Z,11.37
2018-03-31T16:26:56.240Z,11.27
2018-03-31T16:29:23.983Z,12.00
2018-03-31T16:31:50.969Z,29.30
2018-03-31T16:34:18.701Z,34.27
2018-03-31T16:36:45.689Z,34.27
2018-03-31T16:39:12.682Z,52.80
2018-03-31T16:41:39.681Z,117.13
2018-03-31T16:44:07.437Z,90.77
2018-03-31T16:46:34.414Z,81.80
2018-03-31T16:49:01.393Z,72.33
2018-03-31T16:51:28.375Z,69.80
2018-03-31T16:53:55.341Z,60.13
2018-03-31T16:56:22.331Z,58.37
2018-03-31T16:58:49.301Z,53.60
2018-03-31T17:01:16.281Z,50.47
2018-03-31T17:03:43.277Z,46.90
2018-03-31T17:06:10.261Z,45.33
2018-03-31T17:08:37.277Z,46.63
2018-03-31T17:11:04.268Z,44.63
2018-03-31T17:13:31.248Z,41.37
2018-03-31T17:15:58.224Z,40.33
2018-03-31T17:18:25.196Z,38.90
2018-03-31T17:20:52.173Z,38.57
2018-03-31T17:23:19.167Z,36.47
2018-03-31T17:25:46.181Z,34.13
2018-03-31T17:28:13.149Z,33.23
2018-03-31T17:30:40.137Z,34.13
2018-03-31T17:33:07.142Z,33.47
2018-03-31T17:35:34.125Z,31.07
2018-03-31T17:38:01.853Z,29.87
2018-03-31T17:40:28.832Z,27.53
2018-03-31T17:42:55.845Z,29.10
2018-03-31T17:45:22.799Z,29.93
2018-03-31T17:47:49.758Z,29.13
2018-03-31T17:50:16.728Z,27.77
2018-03-31T17:52:43.701Z,28.27
2018-03-31T17:55:10.680Z,25.10
2018-03-31T17:57:37.674Z,27.00
2018-03-31T18:00:04.648Z,27.13
2018-03-31T18:02:32.390Z,25.40
2018-03-31T18:04:59.365Z,24.93
2018-03-31T18:07:27.119Z,25.93
2018-03-31T18:09:54.092Z,25.20
2018-03-31T18:12:21.838Z,24.97
2018-03-31T18:14:49.617Z,23.47
2018-03-31T18:17:17.355Z,23.03
2018-03-31T18:19:44.329Z,23.53
2018-03-31T18:22:11.312Z,22.63
2018-03-31T18:24:38.293Z,22.10
2018-03-31T18:27:05.308Z,23.13
2018-03-31T18:29:33.039Z,23.33
2018-03-31T18:32:00.792Z,24.23
2018-03-31T18:34:27.791Z,22.57
2018-03-31T18:36:55.749Z,25.93
2018-03-31T18:39:23.481Z,24.53
2018-03-31T18:41:50.698Z,22.27
2018-03-31T18:44:17.751Z,21.07
2018-03-31T18:46:44.733Z,23.00
2018-03-31T18:49:12.528Z,23.37
2018-03-31T18:51:41.004Z,21.13
2018-03-31T18:54:07.993Z,22.33
2018-03-31T18:56:35.740Z,22.93
2018-03-31T18:59:02.721Z,22.67
2018-03-31T19:01:30.644Z,21.80
2018-03-31T19:03:57.670Z,23.00
2018-03-31T19:06:24.883Z,21.80
2018-03-31T19:08:51.892Z,22.53
2018-03-31T19:11:18.876Z,22.17
2018-03-31T19:13:46.270Z,22.33
2018-03-31T19:16:13.209Z,21.90
2018-03-31T19:18:40.212Z,22.17
2018-03-31T19:21:07.905Z,21.20
2018-03-31T19:23:35.504Z,21.13
2018-03-31T19:26:03.135Z,21.53
2018-03-31T19:28:30.725Z,21.10
2018-03-31T19:31:34.924Z,19.90
2018-03-31T19:35:07.318Z,22.00
2018-03-31T19:39:49.962Z,20.97
2018-03-31T19:42:18.707Z,20.13
2018-03-31T19:47:13.610Z,21.93
2018-03-31T19:49:41.277Z,22.33
2018-03-31T19:52:08.884Z,21.27
2018-03-31T19:54:36.508Z,20.27
2018-03-31T19:57:04.221Z,21.57
2018-03-31T19:59:32.045Z,19.97
2018-03-31T20:01:59.677Z,19.37
2018-03-31T20:04:28.866Z,21.10
2018-03-31T20:06:56.473Z,19.50
2018-03-31T20:09:24.100Z,18.90
2018-03-31T20:11:51.713Z,18.90
2018-03-31T20:14:19.342Z,18.47
2018-03-31T20:16:47.099Z,18.97
2018-03-31T20:19:14.848Z,19.23
2018-03-31T20:21:42.433Z,18.40
2018-03-31T20:24:10.085Z,19.00
2018-03-31T20:26:37.698Z,19.37
2018-03-31T20:29:06.084Z,20.20
2018-03-31T20:31:34.467Z,19.07
2018-03-31T20:34:02.134Z,19.77
2018-03-31T20:36:29.733Z,20.07
2018-03-31T20:38:57.437Z,52.87
2018-03-31T20:41:26.684Z,72.10
2018-03-31T20:43:55.273Z,106.53
2018-03-31T20:46:22.954Z,68.57
2018-03-31T20:48:50.653Z,65.70
2018-03-31T20:51:18.284Z,111.70
2018-03-31T20:53:46.013Z,120.10
2018-03-31T20:56:14.444Z,259.47
2018-03-31T20:58:42.314Z,127.57
2018-03-31T21:01:09.980Z,122.20
2018-03-31T21:03:37.758Z,109.27
2018-03-31T21:06:05.408Z,102.87
2018-03-31T21:08:33.020Z,99.30
2018-03-31T21:11:00.636Z,91.97
2018-03-31T21:13:28.245Z,86.33
2018-03-31T21:15:56.304Z,81.40
2018-03-31T21:18:23.889Z,76.33
2018-03-31T21:20:51.512Z,72.83
2018-03-31T21:23:19.110Z,68.77
2018-03-31T21:25:46.739Z,67.67
2018-03-31T21:28:14.329Z,61.60
2018-03-31T21:30:41.946Z,62.13
2018-03-31T21:33:09.559Z,58.67
2018-03-31T21:35:37.355Z,56.27
2018-03-31T21:38:04.918Z,55.70
2018-03-31T21:40:32.722Z,51.13
2018-03-31T21:43:00.380Z,49.80
2018-03-31T21:45:28.955Z,49.80
2018-03-31T21:47:56.713Z,48.50
2018-03-31T21:50:24.313Z,46.20
2018-03-31T21:52:52.827Z,45.30
2018-03-31T21:55:20.421Z,44.23
2018-03-31T21:57:48.037Z,43.47
2018-03-31T22:00:15.641Z,41.90
2018-03-31T22:02:43.269Z,41.07
2018-03-31T22:05:10.875Z,37.50
2018-03-31T22:07:39.985Z,39.37
2018-03-31T22:10:07.606Z,37.83
2018-03-31T22:12:35.204Z,37.73
2018-03-31T22:15:08.633Z,37.73
2018-03-31T22:17:37.001Z,35.90
2018-03-31T22:20:04.612Z,34.67
2018-03-31T22:22:32.244Z,34.60
2018-03-31T22:25:00.635Z,34.03
2018-03-31T22:27:29.011Z,32.90
2018-03-31T22:29:57.411Z,31.67
2018-03-31T22:32:26.784Z,32.43
2018-03-31T22:34:55.905Z,32.43
2018-03-31T22:37:24.275Z,31.57
2018-03-31T22:39:52.666Z,31.07
2018-03-31T22:42:20.340Z,31.03
2018-03-31T22:44:48.721Z,30.50
2018-03-31T22:47:17.101Z,30.43
2018-03-31T22:49:45.507Z,29.60
2018-03-31T22:52:13.121Z,29.50
2018-03-31T22:54:40.721Z,29.30
2018-03-31T22:57:09.101Z,29.37
2018-03-31T22:59:36.703Z,28.17
2018-03-31T23:02:04.433Z,27.73
2018-03-31T23:04:32.053Z,27.23
2018-03-31T23:06:59.649Z,26.80
2018-03-31T23:09:28.034Z,26.87
2018-03-31T23:11:56.409Z,26.23
2018-03-31T23:14:24.029Z,24.37
2018-03-31T23:16:51.645Z,25.10
2018-03-31T23:19:19.249Z,25.63
2018-03-31T23:21:47.604Z,26.17
2018-03-31T23:24:16.021Z,25.27
2018-03-31T23:26:44.379Z,24.17
2018-03-31T23:29:11.989Z,24.37
2018-03-31T23:31:39.596Z,25.17
2018-03-31T23:34:07.969Z,22.27
2018-03-31T23:36:35.576Z,22.50
2018-03-31T23:39:03.189Z,23.47
2018-03-31T23:41:30.792Z,23.03
2018-03-31T23:43:58.396Z,22.77
2018-03-31T23:46:26.001Z,23.00
2018-03-31T23:48:54.377Z,21.20
2018-03-31T23:51:22.757Z,21.53
2018-03-31T23:53:50.368Z,20.23
2018-03-31T23:56:17.989Z,21.37
2018-03-31T23:58:45.594Z,20.33
